sensor_id;sensor_type;location;lat;lon;timestamp;pressure;altitude;pressure_sealevel;temperature;humidity
40946;BME280;55635;50.264;11.918;2022-09-09T00:02:27;95330.34;;;14.05;76.42
40946;BME280;55635;50.264;11.918;2022-09-09T00:08:21;95320.47;;;14.12;76.86
40946;BME280;55635;50.264;11.918;2022-09-09T00:11:04;95335.25;;;14.08;76.64
40946;BME280;55635;50.264;11.918;2022-09-09T00:13:53;95331.63;;;13.96;77.17
40946;BME280;55635;50.264;11.918;2022-09-09T00:16:40;95322.53;;;14.04;76.48
40946;BME280;55635;50.264;11.918;2022-09-09T00:20:03;95323.56;;;14.09;76.37
40946;BME280;55635;50.264;11.918;2022-09-09T00:22:59;95326.06;;;13.98;75.73
40946;BME280;55635;50.264;11.918;2022-09-09T00:31:57;95309.66;;;13.94;75.91
40946;BME280;55635;50.264;11.918;2022-09-09T00:35:00;95308.44;;;13.97;75.77
40946;BME280;55635;50.264;11.918;2022-09-09T00:37:42;95311.16;;;13.90;76.87
40946;BME280;55635;50.264;11.918;2022-09-09T00:40:32;95308.09;;;13.87;77.61
40946;BME280;55635;50.264;11.918;2022-09-09T00:43:42;95317.31;;;13.84;77.89
40946;BME280;55635;50.264;11.918;2022-09-09T00:46:46;95316.28;;;13.85;78.37
40946;BME280;55635;50.264;11.918;2022-09-09T00:50:08;95310.34;;;13.83;77.52
40946;BME280;55635;50.264;11.918;2022-09-09T00:58:52;95320.81;;;13.85;78.11
40946;BME280;55635;50.264;11.918;2022-09-09T01:01:37;95320.63;;;13.73;77.43
40946;BME280;55635;50.264;11.918;2022-09-09T01:04:29;95320.59;;;13.80;76.29
40946;BME280;55635;50.264;11.918;2022-09-09T01:07:19;95312.69;;;13.67;75.51
40946;BME280;55635;50.264;11.918;2022-09-09T01:16:09;95328.69;;;13.67;76.71
40946;BME280;55635;50.264;11.918;2022-09-09T01:18:53;95318.88;;;13.54;76.99
40946;BME280;55635;50.264;11.918;2022-09-09T01:22:33;95316.81;;;13.56;77.36
40946;BME280;55635;50.264;11.918;2022-09-09T01:25:22;95322.97;;;13.56;77.70
40946;BME280;55635;50.264;11.918;2022-09-09T01:28:24;95310.06;;;13.53;78.18
40946;BME280;55635;50.264;11.918;2022-09-09T01:31:11;95319.28;;;13.57;79.00
40946;BME280;55635;50.264;11.918;2022-09-09T01:33:58;95322.13;;;13.62;77.50
40946;BME280;55635;50.264;11.918;2022-09-09T01:36:49;95317.81;;;13.61;78.41
40946;BME280;55635;50.264;11.918;2022-09-09T01:39:36;95323.41;;;13.53;77.79
40946;BME280;55635;50.264;11.918;2022-09-09T01:42:22;95321.72;;;13.59;77.65
40946;BME280;55635;50.264;11.918;2022-09-09T01:45:04;95305.78;;;13.52;77.24
40946;BME280;55635;50.264;11.918;2022-09-09T01:47:46;95314.81;;;13.51;76.62
40946;BME280;55635;50.264;11.918;2022-09-09T01:50:34;95315.84;;;13.44;77.14
40946;BME280;55635;50.264;11.918;2022-09-09T01:53:18;95315.44;;;13.40;77.12
40946;BME280;55635;50.264;11.918;2022-09-09T01:59:38;95328.75;;;13.40;78.55
40946;BME280;55635;50.264;11.918;2022-09-09T02:02:35;95326.75;;;13.36;78.11
40946;BME280;55635;50.264;11.918;2022-09-09T02:05:41;95315.25;;;13.35;77.33
40946;BME280;55635;50.264;11.918;2022-09-09T02:08:48;95317.50;;;13.38;78.20
40946;BME280;55635;50.264;11.918;2022-09-09T02:11:31;95317.69;;;13.37;80.45
40946;BME280;55635;50.264;11.918;2022-09-09T02:14:57;95322.00;;;13.44;79.48
40946;BME280;55635;50.264;11.918;2022-09-09T02:17:51;95324.63;;;13.57;79.67
40946;BME280;55635;50.264;11.918;2022-09-09T02:20:33;95318.50;;;13.50;80.01
40946;BME280;55635;50.264;11.918;2022-09-09T02:23:15;95311.31;;;13.57;79.79
40946;BME280;55635;50.264;11.918;2022-09-09T02:25:58;95310.88;;;13.60;79.40
40946;BME280;55635;50.264;11.918;2022-09-09T02:28:41;95312.31;;;13.56;77.71
40946;BME280;55635;50.264;11.918;2022-09-09T02:31:24;95324.63;;;13.57;76.87
40946;BME280;55635;50.264;11.918;2022-09-09T02:34:10;95314.97;;;13.56;77.27
40946;BME280;55635;50.264;11.918;2022-09-09T02:36:54;95320.13;;;13.51;78.14
40946;BME280;55635;50.264;11.918;2022-09-09T02:39:36;95307.84;;;13.50;79.45
40946;BME280;55635;50.264;11.918;2022-09-09T02:42:19;95308.28;;;13.41;79.34
40946;BME280;55635;50.264;11.918;2022-09-09T02:45:00;95307.88;;;13.37;80.23
40946;BME280;55635;50.264;11.918;2022-09-09T02:51:00;95297.56;;;13.60;79.53
40946;BME280;55635;50.264;11.918;2022-09-09T02:56:53;95305.38;;;13.49;80.80
40946;BME280;55635;50.264;11.918;2022-09-09T02:59:40;95295.13;;;13.52;79.43
40946;BME280;55635;50.264;11.918;2022-09-09T03:02:23;95301.66;;;13.56;78.62
40946;BME280;55635;50.264;11.918;2022-09-09T03:05:10;95287.75;;;13.54;78.78
40946;BME280;55635;50.264;11.918;2022-09-09T03:07:52;95305.31;;;13.69;78.58
40946;BME280;55635;50.264;11.918;2022-09-09T03:10:35;95304.06;;;13.64;78.43
40946;BME280;55635;50.264;11.918;2022-09-09T03:13:15;95298.75;;;13.64;78.87
40946;BME280;55635;50.264;11.918;2022-09-09T03:15:57;95303.47;;;13.69;78.68
40946;BME280;55635;50.264;11.918;2022-09-09T03:18:38;95300.81;;;13.62;79.10
40946;BME280;55635;50.264;11.918;2022-09-09T03:21:19;95302.41;;;13.70;79.17
40946;BME280;55635;50.264;11.918;2022-09-09T03:24:01;95312.03;;;13.78;78.83
40946;BME280;55635;50.264;11.918;2022-09-09T03:26:44;95297.06;;;13.77;78.72
40946;BME280;55635;50.264;11.918;2022-09-09T03:29:28;95300.13;;;13.74;78.46
40946;BME280;55635;50.264;11.918;2022-09-09T03:32:12;95304.03;;;13.78;78.89
40946;BME280;55635;50.264;11.918;2022-09-09T03:34:54;95310.31;;;13.90;78.90
40946;BME280;55635;50.264;11.918;2022-09-09T03:37:35;95299.84;;;13.88;79.29
40946;BME280;55635;50.264;11.918;2022-09-09T03:40:16;95300.25;;;13.92;79.03
40946;BME280;55635;50.264;11.918;2022-09-09T03:43:00;95297.94;;;14.02;79.11
40946;BME280;55635;50.264;11.918;2022-09-09T03:45:46;95297.09;;;14.08;79.01
40946;BME280;55635;50.264;11.918;2022-09-09T03:48:30;95296.47;;;14.12;79.18
40946;BME280;55635;50.264;11.918;2022-09-09T03:51:13;95285.56;;;14.14;78.54
40946;BME280;55635;50.264;11.918;2022-09-09T03:53:55;95287.38;;;14.20;78.27
40946;BME280;55635;50.264;11.918;2022-09-09T03:56:37;95282.81;;;14.27;77.82
40946;BME280;55635;50.264;11.918;2022-09-09T03:59:18;95290.16;;;14.32;77.15
40946;BME280;55635;50.264;11.918;2022-09-09T04:01:59;95280.97;;;14.28;77.66
40946;BME280;55635;50.264;11.918;2022-09-09T04:04:40;95284.88;;;14.25;77.40
40946;BME280;55635;50.264;11.918;2022-09-09T04:07:21;95287.72;;;14.30;77.24
40946;BME280;55635;50.264;11.918;2022-09-09T04:10:06;95290.38;;;14.30;77.39
40946;BME280;55635;50.264;11.918;2022-09-09T04:12:47;95282.38;;;14.30;78.35
40946;BME280;55635;50.264;11.918;2022-09-09T04:15:28;95293.03;;;14.37;78.07
40946;BME280;55635;50.264;11.918;2022-09-09T04:18:10;95287.91;;;14.35;77.93
40946;BME280;55635;50.264;11.918;2022-09-09T04:20:53;95279.28;;;14.40;77.67
40946;BME280;55635;50.264;11.918;2022-09-09T04:23:37;95271.63;;;14.43;77.38
40946;BME280;55635;50.264;11.918;2022-09-09T04:26:19;95269.84;;;14.37;77.98
40946;BME280;55635;50.264;11.918;2022-09-09T04:29:00;95279.44;;;14.45;78.07
40946;BME280;55635;50.264;11.918;2022-09-09T04:31:43;95286.41;;;14.46;77.21
40946;BME280;55635;50.264;11.918;2022-09-09T04:34:24;95286.47;;;14.39;77.29
40946;BME280;55635;50.264;11.918;2022-09-09T04:37:09;95287.03;;;14.41;76.90
40946;BME280;55635;50.264;11.918;2022-09-09T04:39:52;95270.44;;;14.39;77.29
40946;BME280;55635;50.264;11.918;2022-09-09T04:42:37;95274.03;;;14.51;77.46
40946;BME280;55635;50.264;11.918;2022-09-09T04:45:18;95268.59;;;14.40;78.03
40946;BME280;55635;50.264;11.918;2022-09-09T04:48:00;95274.53;;;14.42;77.18
40946;BME280;55635;50.264;11.918;2022-09-09T04:50:41;95280.50;;;14.37;77.05
40946;BME280;55635;50.264;11.918;2022-09-09T04:53:26;95283.41;;;14.36;78.19
40946;BME280;55635;50.264;11.918;2022-09-09T04:56:10;95290.00;;;14.33;77.91
40946;BME280;55635;50.264;11.918;2022-09-09T04:58:55;95283.06;;;14.19;78.80
40946;BME280;55635;50.264;11.918;2022-09-09T05:01:40;95288.22;;;14.14;79.01
40946;BME280;55635;50.264;11.918;2022-09-09T05:04:22;95290.38;;;14.30;78.34
40946;BME280;55635;50.264;11.918;2022-09-09T05:07:03;95295.09;;;14.35;78.13
40946;BME280;55635;50.264;11.918;2022-09-09T05:09:44;95284.44;;;14.35;78.35
40946;BME280;55635;50.264;11.918;2022-09-09T05:12:26;95285.25;;;14.35;77.91
40946;BME280;55635;50.264;11.918;2022-09-09T05:15:08;95292.44;;;14.35;78.75
40946;BME280;55635;50.264;11.918;2022-09-09T05:17:50;95288.50;;;14.37;78.43
40946;BME280;55635;50.264;11.918;2022-09-09T05:20:33;95283.16;;;14.37;78.64
40946;BME280;55635;50.264;11.918;2022-09-09T05:23:16;95295.81;;;14.48;77.91
40946;BME280;55635;50.264;11.918;2022-09-09T05:25:58;95309.81;;;14.44;78.76
40946;BME280;55635;50.264;11.918;2022-09-09T05:28:39;95293.59;;;14.45;78.76
40946;BME280;55635;50.264;11.918;2022-09-09T05:31:21;95294.91;;;14.61;78.07
40946;BME280;55635;50.264;11.918;2022-09-09T05:34:06;95292.09;;;14.74;77.44
40946;BME280;55635;50.264;11.918;2022-09-09T05:36:47;95286.41;;;14.70;77.83
40946;BME280;55635;50.264;11.918;2022-09-09T05:39:29;95291.56;;;14.65;78.37
40946;BME280;55635;50.264;11.918;2022-09-09T05:42:10;95293.97;;;14.74;79.27
40946;BME280;55635;50.264;11.918;2022-09-09T05:44:52;95302.53;;;14.82;79.11
40946;BME280;55635;50.264;11.918;2022-09-09T05:47:36;95288.88;;;14.90;78.74
40946;BME280;55635;50.264;11.918;2022-09-09T05:50:20;95308.09;;;14.99;78.02
40946;BME280;55635;50.264;11.918;2022-09-09T05:53:01;95308.44;;;15.09;78.18
40946;BME280;55635;50.264;11.918;2022-09-09T05:55:42;95306.78;;;15.08;78.68
40946;BME280;55635;50.264;11.918;2022-09-09T05:58:23;95320.97;;;15.08;80.05
40946;BME280;55635;50.264;11.918;2022-09-09T06:01:11;95306.44;;;15.04;81.29
40946;BME280;55635;50.264;11.918;2022-09-09T06:03:55;95311.97;;;15.03;81.46
40946;BME280;55635;50.264;11.918;2022-09-09T06:06:38;95313.19;;;15.07;82.51
40946;BME280;55635;50.264;11.918;2022-09-09T06:09:30;95314.69;;;15.21;80.65
40946;BME280;55635;50.264;11.918;2022-09-09T06:12:11;95310.81;;;15.35;79.87
40946;BME280;55635;50.264;11.918;2022-09-09T06:14:53;95318.00;;;15.59;78.68
40946;BME280;55635;50.264;11.918;2022-09-09T06:17:34;95320.28;;;15.74;78.11
40946;BME280;55635;50.264;11.918;2022-09-09T06:20:15;95311.28;;;15.87;78.31
40946;BME280;55635;50.264;11.918;2022-09-09T06:22:56;95308.88;;;15.97;77.38
40946;BME280;55635;50.264;11.918;2022-09-09T06:25:37;95314.38;;;16.02;77.39
40946;BME280;55635;50.264;11.918;2022-09-09T06:28:22;95320.84;;;16.24;76.62
40946;BME280;55635;50.264;11.918;2022-09-09T06:31:07;95322.16;;;16.33;76.66
40946;BME280;55635;50.264;11.918;2022-09-09T06:33:51;95325.16;;;16.55;76.08
40946;BME280;55635;50.264;11.918;2022-09-09T06:36:36;95323.00;;;16.75;75.66
40946;BME280;55635;50.264;11.918;2022-09-09T06:39:18;95330.38;;;17.03;74.54
40946;BME280;55635;50.264;11.918;2022-09-09T06:41:59;95318.63;;;17.27;74.70
40946;BME280;55635;50.264;11.918;2022-09-09T06:45:04;95319.66;;;17.37;74.19
40946;BME280;55635;50.264;11.918;2022-09-09T06:47:50;95315.81;;;17.45;73.68
40946;BME280;55635;50.264;11.918;2022-09-09T06:50:33;95316.03;;;17.55;73.25
40946;BME280;55635;50.264;11.918;2022-09-09T06:53:17;95331.28;;;17.78;73.83
40946;BME280;55635;50.264;11.918;2022-09-09T06:56:28;95326.47;;;17.91;73.18
40946;BME280;55635;50.264;11.918;2022-09-09T06:59:11;95324.94;;;17.95;75.24
40946;BME280;55635;50.264;11.918;2022-09-09T07:01:53;95315.81;;;18.36;73.16
40946;BME280;55635;50.264;11.918;2022-09-09T07:04:35;95312.16;;;18.71;71.83
40946;BME280;55635;50.264;11.918;2022-09-09T07:07:17;95307.84;;;19.20;71.25
40946;BME280;55635;50.264;11.918;2022-09-09T07:10:02;95309.94;;;19.18;69.53
40946;BME280;55635;50.264;11.918;2022-09-09T07:12:51;95312.78;;;19.28;69.08
40946;BME280;55635;50.264;11.918;2022-09-09T07:15:34;95309.66;;;19.36;68.59
40946;BME280;55635;50.264;11.918;2022-09-09T07:18:15;95307.34;;;19.78;66.16
40946;BME280;55635;50.264;11.918;2022-09-09T07:20:56;95318.03;;;19.94;66.06
40946;BME280;55635;50.264;11.918;2022-09-09T07:23:39;95312.09;;;20.94;64.84
40946;BME280;55635;50.264;11.918;2022-09-09T07:26:24;95320.25;;;20.46;63.86
40946;BME280;55635;50.264;11.918;2022-09-09T07:29:08;95321.94;;;20.52;63.29
40946;BME280;55635;50.264;11.918;2022-09-09T07:31:49;95315.63;;;19.54;66.28
40946;BME280;55635;50.264;11.918;2022-09-09T07:34:35;95316.88;;;19.47;68.37
40946;BME280;55635;50.264;11.918;2022-09-09T07:37:16;95326.38;;;19.21;66.42
40946;BME280;55635;50.264;11.918;2022-09-09T07:39:59;95331.28;;;18.46;69.74
40946;BME280;55635;50.264;11.918;2022-09-09T07:42:40;95332.09;;;18.18;70.15
40946;BME280;55635;50.264;11.918;2022-09-09T07:45:20;95343.09;;;18.05;70.76
40946;BME280;55635;50.264;11.918;2022-09-09T07:48:02;95347.50;;;18.51;71.44
40946;BME280;55635;50.264;11.918;2022-09-09T07:50:44;95332.41;;;18.62;69.76
40946;BME280;55635;50.264;11.918;2022-09-09T07:53:25;95347.47;;;18.79;68.69
40946;BME280;55635;50.264;11.918;2022-09-09T07:56:12;95332.25;;;18.68;68.83
40946;BME280;55635;50.264;11.918;2022-09-09T07:58:55;95353.75;;;18.85;68.18
40946;BME280;55635;50.264;11.918;2022-09-09T08:01:43;95350.88;;;18.58;69.46
40946;BME280;55635;50.264;11.918;2022-09-09T08:04:27;95359.13;;;18.68;69.30
40946;BME280;55635;50.264;11.918;2022-09-09T08:07:09;95362.03;;;18.67;68.37
40946;BME280;55635;50.264;11.918;2022-09-09T08:09:58;95353.19;;;19.33;67.81
40946;BME280;55635;50.264;11.918;2022-09-09T08:12:43;95369.31;;;20.48;63.58
40946;BME280;55635;50.264;11.918;2022-09-09T08:15:25;95351.47;;;20.20;62.18
40946;BME280;55635;50.264;11.918;2022-09-09T08:18:06;95353.25;;;20.58;62.79
40946;BME280;55635;50.264;11.918;2022-09-09T08:20:46;95355.97;;;19.93;64.77
40946;BME280;55635;50.264;11.918;2022-09-09T08:23:29;95356.56;;;19.23;65.45
40946;BME280;55635;50.264;11.918;2022-09-09T08:26:28;95348.75;;;19.77;64.09
40946;BME280;55635;50.264;11.918;2022-09-09T08:29:12;95350.97;;;19.63;66.45
40946;BME280;55635;50.264;11.918;2022-09-09T08:31:57;95369.94;;;21.08;62.95
40946;BME280;55635;50.264;11.918;2022-09-09T08:34:39;95369.97;;;21.87;59.84
40946;BME280;55635;50.264;11.918;2022-09-09T08:37:24;95360.84;;;22.50;59.68
40946;BME280;55635;50.264;11.918;2022-09-09T08:40:07;95365.84;;;21.75;61.57
40946;BME280;55635;50.264;11.918;2022-09-09T08:42:52;95367.06;;;20.93;61.08
40946;BME280;55635;50.264;11.918;2022-09-09T08:46:26;95374.22;;;21.73;61.70
40946;BME280;55635;50.264;11.918;2022-09-09T08:49:51;95372.97;;;22.48;58.71
40946;BME280;55635;50.264;11.918;2022-09-09T08:53:28;95380.53;;;22.51;57.38
40946;BME280;55635;50.264;11.918;2022-09-09T08:56:18;95373.53;;;21.56;60.17
40946;BME280;55635;50.264;11.918;2022-09-09T08:59:17;95376.59;;;22.73;59.56
40946;BME280;55635;50.264;11.918;2022-09-09T09:05:51;95387.50;;;23.14;57.25
40946;BME280;55635;50.264;11.918;2022-09-09T09:12:15;95366.63;;;23.80;54.36
40946;BME280;55635;50.264;11.918;2022-09-09T09:14:59;95371.25;;;23.84;52.64
40946;BME280;55635;50.264;11.918;2022-09-09T09:17:40;95356.84;;;24.14;53.48
40946;BME280;55635;50.264;11.918;2022-09-09T09:21:10;95373.84;;;21.59;57.80
40946;BME280;55635;50.264;11.918;2022-09-09T09:23:59;95372.34;;;21.37;58.96
40946;BME280;55635;50.264;11.918;2022-09-09T09:26:44;95373.47;;;23.42;54.91
40946;BME280;55635;50.264;11.918;2022-09-09T09:29:26;95360.31;;;24.89;52.74
40946;BME280;55635;50.264;11.918;2022-09-09T09:32:15;95361.25;;;23.14;54.87
40946;BME280;55635;50.264;11.918;2022-09-09T09:34:58;95373.34;;;22.09;55.58
40946;BME280;55635;50.264;11.918;2022-09-09T09:37:45;95365.81;;;23.90;52.56
40946;BME280;55635;50.264;11.918;2022-09-09T09:40:26;95367.94;;;22.71;55.59
40946;BME280;55635;50.264;11.918;2022-09-09T09:43:26;95370.66;;;24.18;54.65
40946;BME280;55635;50.264;11.918;2022-09-09T09:46:21;95378.06;;;23.42;52.59
40946;BME280;55635;50.264;11.918;2022-09-09T09:49:10;95354.78;;;23.51;54.55
40946;BME280;55635;50.264;11.918;2022-09-09T09:52:01;95370.94;;;24.11;51.73
40946;BME280;55635;50.264;11.918;2022-09-09T09:54:43;95361.81;;;23.47;52.63
40946;BME280;55635;50.264;11.918;2022-09-09T09:57:27;95369.91;;;23.77;52.09
40946;BME280;55635;50.264;11.918;2022-09-09T10:00:22;95371.91;;;22.44;55.90
40946;BME280;55635;50.264;11.918;2022-09-09T10:06:09;95368.25;;;22.95;53.48
40946;BME280;55635;50.264;11.918;2022-09-09T10:08:50;95361.28;;;23.50;54.44
40946;BME280;55635;50.264;11.918;2022-09-09T10:11:50;95376.13;;;22.24;56.21
40946;BME280;55635;50.264;11.918;2022-09-09T10:15:03;95367.06;;;21.52;58.22
40946;BME280;55635;50.264;11.918;2022-09-09T10:18:17;95374.88;;;21.53;59.20
40946;BME280;55635;50.264;11.918;2022-09-09T10:30:27;95371.00;;;23.46;52.71
40946;BME280;55635;50.264;11.918;2022-09-09T10:36:25;95363.66;;;22.13;56.81
40946;BME280;55635;50.264;11.918;2022-09-09T10:39:36;95368.63;;;22.42;55.45
40946;BME280;55635;50.264;11.918;2022-09-09T10:42:21;95358.94;;;21.89;57.27
40946;BME280;55635;50.264;11.918;2022-09-09T10:45:27;95360.69;;;23.07;54.41
40946;BME280;55635;50.264;11.918;2022-09-09T10:55:00;95358.22;;;21.25;57.37
40946;BME280;55635;50.264;11.918;2022-09-09T10:57:48;95349.56;;;21.23;57.85
40946;BME280;55635;50.264;11.918;2022-09-09T11:00:47;95337.56;;;21.87;57.43
40946;BME280;55635;50.264;11.918;2022-09-09T11:03:30;95351.44;;;22.68;54.80
40946;BME280;55635;50.264;11.918;2022-09-09T11:06:19;95355.75;;;21.60;57.32
40946;BME280;55635;50.264;11.918;2022-09-09T11:09:02;95335.72;;;24.06;53.51
40946;BME280;55635;50.264;11.918;2022-09-09T11:11:56;95320.38;;;23.56;52.73
40946;BME280;55635;50.264;11.918;2022-09-09T11:17:53;95316.88;;;23.51;54.01
40946;BME280;55635;50.264;11.918;2022-09-09T11:20:37;95313.25;;;24.60;51.47
40946;BME280;55635;50.264;11.918;2022-09-09T11:23:39;95302.25;;;24.80;48.98
40946;BME280;55635;50.264;11.918;2022-09-09T11:26:41;95314.97;;;23.36;53.92
40946;BME280;55635;50.264;11.918;2022-09-09T11:30:02;95321.09;;;23.92;52.11
40946;BME280;55635;50.264;11.918;2022-09-09T11:42:25;95327.50;;;22.30;54.98
40946;BME280;55635;50.264;11.918;2022-09-09T11:48:28;95319.56;;;23.00;53.26
40946;BME280;55635;50.264;11.918;2022-09-09T11:51:24;95312.81;;;22.93;53.68
40946;BME280;55635;50.264;11.918;2022-09-09T11:54:30;95316.06;;;23.10;54.89
40946;BME280;55635;50.264;11.918;2022-09-09T11:57:32;95299.50;;;23.82;53.40
40946;BME280;55635;50.264;11.918;2022-09-09T12:00:38;95306.75;;;24.56;49.89
40946;BME280;55635;50.264;11.918;2022-09-09T12:03:45;95297.88;;;25.85;45.80
40946;BME280;55635;50.264;11.918;2022-09-09T12:06:33;95298.66;;;26.33;44.08
40946;BME280;55635;50.264;11.918;2022-09-09T12:12:35;95292.59;;;25.70;44.06
40946;BME280;55635;50.264;11.918;2022-09-09T12:15:24;95287.09;;;26.65;42.82
40946;BME280;55635;50.264;11.918;2022-09-09T12:18:21;95290.38;;;24.71;45.63
40946;BME280;55635;50.264;11.918;2022-09-09T12:21:24;95287.72;;;25.96;46.24
40946;BME280;55635;50.264;11.918;2022-09-09T12:24:11;95286.72;;;26.11;43.74
40946;BME280;55635;50.264;11.918;2022-09-09T12:30:09;95289.66;;;25.38;44.50
40946;BME280;55635;50.264;11.918;2022-09-09T12:33:06;95278.47;;;24.72;45.48
40946;BME280;55635;50.264;11.918;2022-09-09T12:35:57;95279.56;;;25.38;45.91
40946;BME280;55635;50.264;11.918;2022-09-09T12:38:41;95273.81;;;24.77;45.96
40946;BME280;55635;50.264;11.918;2022-09-09T12:41:25;95278.81;;;24.01;48.94
40946;BME280;55635;50.264;11.918;2022-09-09T12:44:09;95272.00;;;22.99;50.21
40946;BME280;55635;50.264;11.918;2022-09-09T12:46:51;95282.81;;;23.04;50.33
40946;BME280;55635;50.264;11.918;2022-09-09T12:49:38;95288.94;;;21.77;53.07
40946;BME280;55635;50.264;11.918;2022-09-09T12:52:36;95285.78;;;21.90;54.40
40946;BME280;55635;50.264;11.918;2022-09-09T12:55:23;95291.38;;;21.84;52.58
40946;BME280;55635;50.264;11.918;2022-09-09T12:58:06;95278.38;;;21.70;54.07
40946;BME280;55635;50.264;11.918;2022-09-09T13:00:53;95291.47;;;21.94;54.60
40946;BME280;55635;50.264;11.918;2022-09-09T13:03:43;95298.84;;;22.18;52.99
40946;BME280;55635;50.264;11.918;2022-09-09T13:06:32;95289.66;;;21.62;54.13
40946;BME280;55635;50.264;11.918;2022-09-09T13:09:13;95292.97;;;21.28;55.18
40946;BME280;55635;50.264;11.918;2022-09-09T13:11:57;95283.19;;;21.58;53.40
40946;BME280;55635;50.264;11.918;2022-09-09T13:14:38;95276.31;;;21.41;51.88
40946;BME280;55635;50.264;11.918;2022-09-09T13:17:25;95280.88;;;21.87;50.99
40946;BME280;55635;50.264;11.918;2022-09-09T13:20:17;95265.22;;;22.97;49.36
40946;BME280;55635;50.264;11.918;2022-09-09T13:22:58;95266.81;;;23.48;47.34
40946;BME280;55635;50.264;11.918;2022-09-09T13:25:39;95240.09;;;23.96;46.69
40946;BME280;55635;50.264;11.918;2022-09-09T13:28:24;95241.66;;;24.07;49.05
40946;BME280;55635;50.264;11.918;2022-09-09T13:31:24;95234.81;;;24.73;44.25
40946;BME280;55635;50.264;11.918;2022-09-09T13:34:30;95230.00;;;25.57;43.49
40946;BME280;55635;50.264;11.918;2022-09-09T13:37:35;95213.75;;;25.99;42.17
40946;BME280;55635;50.264;11.918;2022-09-09T13:40:22;95194.63;;;25.85;42.96
40946;BME280;55635;50.264;11.918;2022-09-09T13:43:04;95181.13;;;25.04;43.80
40946;BME280;55635;50.264;11.918;2022-09-09T13:45:56;95190.50;;;24.49;43.84
40946;BME280;55635;50.264;11.918;2022-09-09T13:48:39;95201.56;;;24.14;47.31
40946;BME280;55635;50.264;11.918;2022-09-09T13:51:34;95199.38;;;24.16;46.48
40946;BME280;55635;50.264;11.918;2022-09-09T13:54:18;95214.53;;;23.58;47.27
40946;BME280;55635;50.264;11.918;2022-09-09T13:57:00;95220.88;;;22.88;48.16
40946;BME280;55635;50.264;11.918;2022-09-09T13:59:42;95232.19;;;22.64;49.00
40946;BME280;55635;50.264;11.918;2022-09-09T14:02:23;95234.56;;;22.10;51.81
40946;BME280;55635;50.264;11.918;2022-09-09T14:05:08;95263.94;;;21.50;55.42
40946;BME280;55635;50.264;11.918;2022-09-09T14:07:50;95294.91;;;19.55;65.21
40946;BME280;55635;50.264;11.918;2022-09-09T14:10:31;95300.69;;;19.85;67.93
40946;BME280;55635;50.264;11.918;2022-09-09T14:13:12;95293.09;;;20.04;66.60
40946;BME280;55635;50.264;11.918;2022-09-09T14:15:53;95298.81;;;21.14;67.65
40946;BME280;55635;50.264;11.918;2022-09-09T14:18:34;95287.63;;;22.72;67.46
40946;BME280;55635;50.264;11.918;2022-09-09T14:21:15;95276.22;;;23.71;59.51
40946;BME280;55635;50.264;11.918;2022-09-09T14:23:56;95276.66;;;24.03;58.13
40946;BME280;55635;50.264;11.918;2022-09-09T14:26:38;95285.84;;;24.07;54.39
40946;BME280;55635;50.264;11.918;2022-09-09T14:29:19;95283.84;;;23.33;55.19
40946;BME280;55635;50.264;11.918;2022-09-09T14:32:00;95286.03;;;23.16;58.96
40946;BME280;55635;50.264;11.918;2022-09-09T14:34:41;95282.78;;;23.19;57.03
40946;BME280;55635;50.264;11.918;2022-09-09T14:37:22;95290.38;;;23.17;56.85
40946;BME280;55635;50.264;11.918;2022-09-09T14:40:03;95291.16;;;23.03;55.37
40946;BME280;55635;50.264;11.918;2022-09-09T14:42:45;95290.38;;;22.97;56.78
40946;BME280;55635;50.264;11.918;2022-09-09T14:45:26;95288.44;;;22.72;61.88
40946;BME280;55635;50.264;11.918;2022-09-09T14:48:07;95290.47;;;20.89;63.97
40946;BME280;55635;50.264;11.918;2022-09-09T14:50:47;95293.47;;;19.91;68.26
40946;BME280;55635;50.264;11.918;2022-09-09T14:53:29;95318.06;;;19.56;66.46
40946;BME280;55635;50.264;11.918;2022-09-09T14:56:15;95309.44;;;19.76;65.45
40946;BME280;55635;50.264;11.918;2022-09-09T14:58:58;95302.59;;;19.46;70.82
40946;BME280;55635;50.264;11.918;2022-09-09T15:01:41;95300.50;;;19.32;72.40
40946;BME280;55635;50.264;11.918;2022-09-09T15:04:22;95311.09;;;18.88;74.16
40946;BME280;55635;50.264;11.918;2022-09-09T15:07:03;95316.53;;;18.93;74.20
40946;BME280;55635;50.264;11.918;2022-09-09T15:09:44;95318.25;;;18.66;72.41
40946;BME280;55635;50.264;11.918;2022-09-09T15:12:28;95312.47;;;18.91;73.33
40946;BME280;55635;50.264;11.918;2022-09-09T15:15:10;95315.91;;;19.03;73.37
40946;BME280;55635;50.264;11.918;2022-09-09T15:17:51;95324.28;;;19.40;73.12
40946;BME280;55635;50.264;11.918;2022-09-09T15:20:34;95324.13;;;19.46;70.57
40946;BME280;55635;50.264;11.918;2022-09-09T15:23:16;95324.13;;;19.46;69.40
40946;BME280;55635;50.264;11.918;2022-09-09T15:25:57;95320.09;;;19.66;69.88
40946;BME280;55635;50.264;11.918;2022-09-09T15:28:38;95317.59;;;20.78;68.38
40946;BME280;55635;50.264;11.918;2022-09-09T15:31:23;95308.59;;;20.94;65.58
40946;BME280;55635;50.264;11.918;2022-09-09T15:34:06;95319.78;;;20.81;65.91
40946;BME280;55635;50.264;11.918;2022-09-09T15:36:48;95301.66;;;20.23;66.90
40946;BME280;55635;50.264;11.918;2022-09-09T15:39:29;95288.38;;;20.96;64.45
40946;BME280;55635;50.264;11.918;2022-09-09T15:42:10;95296.44;;;20.33;65.69
40946;BME280;55635;50.264;11.918;2022-09-09T15:44:51;95304.44;;;20.28;66.95
40946;BME280;55635;50.264;11.918;2022-09-09T15:47:34;95306.31;;;20.05;67.32
40946;BME280;55635;50.264;11.918;2022-09-09T15:50:15;95305.44;;;20.00;68.42
40946;BME280;55635;50.264;11.918;2022-09-09T15:52:57;95297.75;;;19.87;67.71
40946;BME280;55635;50.264;11.918;2022-09-09T15:55:38;95297.69;;;19.27;68.73
40946;BME280;55635;50.264;11.918;2022-09-09T15:58:19;95307.34;;;19.23;68.50